createdAt,value
2017-06-03T00:00:59.923Z,72.40
2017-06-03T00:03:33.824Z,72.50
2017-06-03T00:06:07.829Z,72.50
2017-06-03T00:08:42.021Z,72.30
2017-06-03T00:11:16.033Z,73.40
2017-06-03T00:13:50.069Z,72.90
2017-06-03T00:16:21.252Z,73.20
2017-06-03T00:18:55.129Z,73.50
2017-06-03T00:21:29.448Z,73.70
2017-06-03T00:24:11.688Z,74.30
2017-06-03T00:26:48.852Z,74.50
2017-06-03T00:29:20.209Z,75.80
2017-06-03T00:31:51.012Z,76.40
2017-06-03T00:34:22.131Z,75.90
2017-06-03T00:36:57.690Z,76.20
2017-06-03T00:39:29.037Z,76.80
2017-06-03T00:42:02.657Z,76.30
2017-06-03T00:44:36.718Z,75.60
2017-06-03T00:47:10.644Z,76.20
2017-06-03T00:49:46.434Z,75.80
2017-06-03T00:52:20.284Z,75.10
2017-06-03T00:54:54.429Z,75.70
2017-06-03T00:57:28.528Z,75.00
2017-06-03T01:00:02.480Z,75.50
2017-06-03T01:02:30.035Z,75.30
2017-06-03T01:04:57.611Z,75.10
2017-06-03T01:07:25.167Z,75.20
2017-06-03T01:09:52.731Z,75.30
2017-06-03T01:12:20.299Z,75.30
2017-06-03T01:14:47.853Z,75.00
2017-06-03T01:17:15.432Z,75.30
2017-06-03T01:19:42.995Z,75.70
2017-06-03T01:22:10.592Z,75.50
2017-06-03T01:24:38.916Z,75.20
2017-06-03T01:27:06.492Z,75.20
2017-06-03T01:29:34.060Z,75.20
2017-06-03T01:32:01.705Z,75.70
2017-06-03T01:34:29.271Z,76.10
2017-06-03T01:36:56.847Z,76.00
2017-06-03T01:39:24.413Z,76.50
2017-06-03T01:41:51.987Z,75.50
2017-06-03T01:44:20.312Z,75.80
2017-06-03T01:46:47.887Z,75.90
2017-06-03T01:49:15.439Z,75.60
2017-06-03T01:51:43.020Z,75.80
2017-06-03T01:54:10.576Z,75.80
2017-06-03T01:56:38.155Z,76.10
2017-06-03T01:59:05.742Z,76.10
2017-06-03T02:01:33.305Z,76.50
2017-06-03T02:04:00.883Z,76.40
2017-06-03T02:06:28.443Z,75.90
2017-06-03T02:08:56.016Z,76.30
2017-06-03T02:11:23.596Z,76.20
2017-06-03T02:13:51.163Z,76.40
2017-06-03T02:16:18.714Z,76.50
2017-06-03T02:18:46.293Z,76.20
2017-06-03T02:21:13.856Z,76.00
2017-06-03T02:23:41.435Z,75.90
2017-06-03T02:26:08.995Z,75.90
2017-06-03T02:28:37.364Z,75.60
2017-06-03T02:31:05.903Z,75.80
2017-06-03T02:33:33.467Z,75.80
2017-06-03T02:36:01.043Z,75.80
2017-06-03T02:38:28.599Z,75.70
2017-06-03T02:40:56.175Z,76.00
2017-06-03T02:43:23.745Z,75.70
2017-06-03T02:45:51.328Z,75.20
2017-06-03T02:48:18.893Z,75.50
2017-06-03T02:50:46.473Z,76.00
2017-06-03T02:53:14.039Z,76.20
2017-06-03T02:55:41.607Z,76.00
2017-06-03T02:58:09.167Z,75.90
2017-06-03T03:00:36.741Z,75.80
2017-06-03T03:03:04.309Z,76.00
2017-06-03T03:05:31.917Z,76.10
2017-06-03T03:07:59.467Z,75.90
2017-06-03T03:10:27.036Z,76.10
2017-06-03T03:12:54.621Z,76.40
2017-06-03T03:15:22.183Z,76.30
2017-06-03T03:17:49.776Z,77.00
2017-06-03T03:20:17.337Z,76.40
2017-06-03T03:22:44.916Z,76.80
2017-06-03T03:25:13.256Z,76.90
2017-06-03T03:27:40.835Z,76.70
2017-06-03T03:30:08.416Z,76.30
2017-06-03T03:32:36.764Z,76.90
2017-06-03T03:35:04.330Z,76.70
2017-06-03T03:37:31.909Z,76.60
2017-06-03T03:39:59.517Z,75.90
2017-06-03T03:42:27.099Z,76.70
2017-06-03T03:44:54.725Z,76.90
2017-06-03T03:47:22.311Z,77.00
2017-06-03T03:49:49.871Z,76.70
2017-06-03T03:52:17.468Z,77.10
2017-06-03T03:54:45.058Z,77.10
2017-06-03T03:57:12.671Z,77.00
2017-06-03T03:59:40.267Z,77.40
2017-06-03T04:02:08.611Z,77.80
2017-06-03T04:04:36.207Z,77.70
2017-06-03T04:07:04.771Z,77.10
2017-06-03T04:09:32.361Z,77.20
2017-06-03T04:11:59.928Z,76.80
2017-06-03T04:14:27.544Z,77.20
2017-06-03T04:16:55.239Z,77.00
2017-06-03T04:19:23.590Z,76.70
2017-06-03T04:21:51.158Z,77.00
2017-06-03T04:24:18.735Z,76.60
2017-06-03T04:26:47.059Z,76.90
2017-06-03T04:29:14.647Z,76.90
2017-06-03T04:31:50.151Z,75.90
2017-06-03T04:34:36.979Z,75.90
2017-06-03T04:37:10.895Z,76.50
2017-06-03T04:39:44.715Z,76.00
2017-06-03T04:42:18.451Z,75.70
2017-06-03T04:44:53.179Z,76.30
2017-06-03T04:47:24.330Z,75.50
2017-06-03T04:50:01.725Z,74.70
2017-06-03T04:52:35.540Z,75.10
2017-06-03T04:55:13.335Z,75.00
2017-06-03T04:57:45.236Z,74.40
2017-06-03T05:00:29.344Z,73.40
2017-06-03T05:03:16.382Z,73.70
2017-06-03T05:05:49.908Z,73.20
2017-06-03T05:11:20.435Z,71.70
2017-06-03T05:14:05.088Z,71.70
2017-06-03T05:16:55.846Z,70.40
2017-06-03T05:19:23.407Z,69.60
2017-06-03T05:21:50.991Z,69.70
2017-06-03T05:24:19.311Z,69.80
2017-06-03T05:26:54.419Z,69.60
2017-06-03T05:29:43.561Z,66.80
2017-06-03T05:32:30.405Z,64.50
2017-06-03T05:35:07.888Z,63.60
2017-06-03T05:37:41.120Z,63.80
2017-06-03T05:40:27.546Z,60.60
2017-06-03T05:43:07.882Z,61.00
2017-06-03T05:45:44.506Z,59.00
2017-06-03T05:48:29.436Z,61.60
2017-06-03T05:51:14.775Z,63.00
2017-06-03T05:53:59.175Z,61.60
2017-06-03T05:56:44.118Z,63.50
2017-06-03T06:02:24.237Z,63.20
2017-06-03T06:05:09.545Z,62.90
2017-06-03T06:07:54.829Z,62.80
2017-06-03T06:10:39.682Z,62.50
2017-06-03T06:13:20.744Z,62.70
2017-06-03T06:18:52.344Z,61.30
2017-06-03T06:21:27.423Z,61.90
2017-06-03T06:24:12.887Z,61.60
2017-06-03T06:27:03.200Z,62.10
2017-06-03T06:29:35.094Z,61.60
2017-06-03T06:32:12.931Z,60.20
2017-06-03T06:34:47.140Z,59.90
2017-06-03T06:37:34.009Z,58.60
2017-06-03T06:40:04.250Z,58.40
2017-06-03T06:42:38.315Z,57.60
2017-06-03T06:48:04.935Z,57.10
2017-06-03T06:53:42.753Z,56.70
2017-06-03T06:56:27.502Z,57.10
2017-06-03T06:59:14.029Z,57.10
2017-06-03T07:01:47.649Z,55.90
2017-06-03T07:04:32.478Z,55.70
2017-06-03T07:07:16.502Z,55.90
2017-06-03T07:12:56.439Z,53.90
2017-06-03T07:15:40.895Z,54.50
2017-06-03T07:18:25.663Z,54.00
2017-06-03T07:21:09.933Z,54.20
2017-06-03T07:23:54.799Z,53.40
2017-06-03T07:26:37.470Z,52.60
2017-06-03T07:29:20.497Z,52.50
2017-06-03T07:31:56.600Z,52.10
2017-06-03T07:34:30.706Z,51.60
2017-06-03T07:37:04.527Z,51.60
2017-06-03T07:39:37.747Z,52.00
2017-06-03T07:42:11.804Z,51.70
2017-06-03T07:47:38.827Z,50.30
2017-06-03T07:50:16.991Z,52.20
2017-06-03T07:52:44.580Z,49.80
2017-06-03T07:58:13.572Z,51.60
2017-06-03T08:00:42.016Z,51.50
2017-06-03T08:03:23.148Z,53.10
2017-06-03T08:05:54.714Z,52.90
2017-06-03T08:11:19.858Z,50.30
2017-06-03T08:14:01.153Z,49.80
2017-06-03T08:19:22.588Z,48.90
2017-06-03T08:21:51.785Z,49.30
2017-06-03T08:24:26.898Z,49.50
2017-06-03T08:26:55.346Z,50.60
2017-06-03T08:29:23.795Z,47.10
2017-06-03T08:31:52.244Z,47.10
2017-06-03T08:34:20.735Z,47.80
2017-06-03T08:36:50.829Z,47.50
2017-06-03T08:42:12.272Z,47.50
2017-06-03T08:44:55.341Z,46.70
2017-06-03T08:47:23.796Z,46.30
2017-06-03T08:49:53.073Z,47.80
2017-06-03T08:52:21.520Z,47.80
2017-06-03T08:54:49.936Z,47.60
2017-06-03T08:57:18.379Z,48.50
2017-06-03T08:59:47.305Z,48.20
2017-06-03T09:02:15.745Z,48.20
2017-06-03T09:04:44.180Z,48.70
2017-06-03T09:07:12.714Z,47.00
2017-06-03T09:09:41.256Z,47.70
2017-06-03T09:12:09.700Z,47.50
2017-06-03T09:14:38.140Z,48.30
2017-06-03T09:17:07.364Z,48.40
2017-06-03T09:19:35.807Z,47.80
2017-06-03T09:22:05.035Z,46.20
2017-06-03T09:24:33.487Z,46.20
2017-06-03T09:27:02.691Z,46.10
2017-06-03T09:29:31.907Z,44.10
2017-06-03T09:32:00.341Z,43.90
2017-06-03T09:34:34.221Z,43.90
2017-06-03T09:37:08.196Z,46.00
2017-06-03T09:39:44.891Z,44.70
2017-06-03T09:42:32.100Z,44.20
2017-06-03T09:47:55.075Z,41.50
2017-06-03T09:50:29.829Z,41.30
2017-06-03T09:53:16.601Z,42.80
2017-06-03T09:56:08.082Z,40.10
2017-06-03T09:58:55.519Z,40.60
2017-06-03T10:01:30.323Z,39.80
2017-06-03T10:04:04.467Z,39.80
2017-06-03T10:09:38.884Z,40.60
2017-06-03T10:12:07.337Z,41.70
2017-06-03T10:14:51.713Z,42.20
2017-06-03T10:17:34.171Z,41.80
2017-06-03T10:20:16.715Z,43.40
2017-06-03T10:23:08.902Z,43.60
2017-06-03T10:28:49.386Z,45.30
2017-06-03T10:31:30.276Z,45.50
2017-06-03T10:34:17.550Z,44.00
2017-06-03T10:40:01.771Z,42.00
2017-06-03T10:45:36.453Z,41.70
2017-06-03T10:48:04.970Z,42.70
2017-06-03T10:50:43.152Z,44.30
2017-06-03T10:53:27.448Z,44.60
2017-06-03T10:58:56.438Z,44.70
2017-06-03T11:01:28.715Z,46.80
2017-06-03T11:06:56.360Z,47.50
2017-06-03T11:09:43.565Z,49.30
2017-06-03T11:12:17.494Z,48.00
2017-06-03T11:14:46.208Z,48.80
2017-06-03T11:17:21.445Z,49.30
2017-06-03T11:19:53.780Z,48.70
2017-06-03T11:25:16.356Z,48.90
2017-06-03T11:27:50.574Z,49.40
2017-06-03T11:30:23.102Z,49.50
2017-06-03T11:35:44.812Z,50.20
2017-06-03T11:38:13.511Z,49.80
2017-06-03T11:45:03.071Z,50.00
2017-06-03T11:47:32.059Z,47.80
2017-06-03T11:50:05.807Z,46.50
2017-06-03T11:52:37.194Z,45.30
2017-06-03T11:55:11.033Z,44.00
2017-06-03T11:57:42.105Z,44.40
2017-06-03T12:00:15.943Z,42.70
2017-06-03T12:02:45.040Z,42.00
2017-06-03T12:05:18.596Z,40.70
2017-06-03T12:10:44.549Z,42.30
2017-06-03T12:13:25.288Z,41.60
2017-06-03T12:15:58.547Z,41.40
2017-06-03T12:18:32.464Z,40.90
2017-06-03T12:21:03.931Z,40.80
2017-06-03T12:23:38.009Z,40.80
2017-06-03T12:26:10.142Z,40.40
2017-06-03T12:28:43.538Z,40.30
2017-06-03T12:31:17.494Z,41.40
2017-06-03T12:36:39.521Z,39.20
2017-06-03T12:42:00.312Z,35.60
2017-06-03T12:44:27.884Z,37.80
2017-06-03T12:46:55.528Z,38.40
2017-06-03T12:49:23.065Z,39.00
2017-06-03T12:51:50.609Z,38.60
2017-06-03T12:54:18.216Z,38.60
2017-06-03T12:56:45.751Z,38.00
2017-06-03T12:59:13.390Z,38.60
2017-06-03T13:01:40.939Z,39.00
2017-06-03T13:04:08.511Z,37.60
2017-06-03T13:06:39.910Z,38.50
2017-06-03T13:09:13.674Z,38.30
2017-06-03T13:11:47.714Z,38.20
2017-06-03T13:14:21.349Z,38.00
2017-06-03T13:16:48.900Z,37.40
2017-06-03T13:19:16.466Z,37.90
2017-06-03T13:21:50.260Z,36.70
2017-06-03T13:24:17.820Z,36.30
2017-06-03T13:26:51.636Z,35.80
2017-06-03T13:29:38.759Z,35.60
2017-06-03T13:32:12.511Z,36.60
2017-06-03T13:37:39.188Z,36.90
2017-06-03T13:40:14.051Z,36.60
2017-06-03T13:42:58.680Z,36.30
2017-06-03T13:45:33.032Z,36.00
2017-06-03T13:48:17.681Z,36.30
2017-06-03T13:51:01.692Z,35.20
2017-06-03T13:53:45.752Z,36.60
2017-06-03T13:56:29.847Z,36.50
2017-06-03T13:59:19.264Z,36.40
2017-06-03T14:01:56.757Z,36.50
2017-06-03T14:04:41.512Z,37.30
2017-06-03T14:07:34.199Z,39.00
2017-06-03T14:10:18.244Z,39.90
2017-06-03T14:13:02.081Z,40.30
2017-06-03T14:15:46.235Z,41.20
2017-06-03T14:18:32.736Z,41.00
2017-06-03T14:21:17.252Z,40.40
2017-06-03T14:24:03.611Z,41.00
2017-06-03T14:26:47.964Z,41.00
2017-06-03T14:29:32.401Z,40.30
2017-06-03T14:32:18.795Z,41.20
2017-06-03T14:37:54.054Z,40.90
2017-06-03T14:43:30.940Z,40.80
2017-06-03T14:46:10.965Z,41.20
2017-06-03T14:48:44.921Z,41.50
2017-06-03T14:51:19.005Z,41.60
2017-06-03T14:53:52.215Z,42.40
2017-06-03T14:56:26.456Z,42.50
2017-06-03T14:58:59.988Z,42.00
2017-06-03T15:04:09.468Z,42.70
2017-06-03T15:06:42.874Z,42.10
2017-06-03T15:09:11.346Z,42.40
2017-06-03T15:11:38.880Z,42.70
2017-06-03T15:14:12.192Z,43.00
2017-06-03T15:16:47.330Z,44.20
2017-06-03T15:19:35.033Z,43.90
2017-06-03T15:22:09.756Z,44.20
2017-06-03T15:24:45.848Z,43.40
2017-06-03T15:30:06.288Z,43.10
2017-06-03T15:32:40.725Z,44.10
2017-06-03T15:35:25.384Z,44.80
2017-06-03T15:38:12.018Z,45.30
2017-06-03T15:40:56.642Z,45.50
2017-06-03T15:43:40.661Z,45.20
2017-06-03T15:46:13.920Z,44.90
2017-06-03T15:48:48.728Z,45.20
2017-06-03T15:51:26.357Z,45.10
2017-06-03T15:54:09.015Z,44.90
2017-06-03T15:56:44.976Z,44.40
2017-06-03T15:59:28.838Z,45.00
2017-06-03T16:02:12.824Z,44.60
2017-06-03T16:04:59.230Z,44.70
2017-06-03T16:07:36.992Z,43.80
2017-06-03T16:13:13.750Z,43.30
2017-06-03T16:15:51.710Z,43.40
2017-06-03T16:21:28.570Z,44.80
2017-06-03T16:24:12.602Z,44.40
2017-06-03T16:26:48.275Z,45.60
2017-06-03T16:29:32.979Z,46.40
2017-06-03T16:35:01.489Z,47.30
2017-06-03T16:37:29.133Z,47.90
2017-06-03T16:39:58.723Z,48.50
2017-06-03T16:42:26.265Z,48.30
2017-06-03T16:44:53.868Z,48.70
2017-06-03T16:47:22.460Z,48.30
2017-06-03T16:49:50.053Z,48.40
2017-06-03T16:52:17.691Z,47.60
2017-06-03T16:54:53.158Z,47.80
2017-06-03T16:57:24.594Z,47.80
2017-06-03T17:00:08.461Z,48.10
2017-06-03T17:02:42.768Z,48.10
2017-06-03T17:05:27.278Z,47.50
2017-06-03T17:08:17.719Z,47.40
2017-06-03T17:11:01.959Z,48.10
2017-06-03T17:13:50.457Z,49.10
2017-06-03T17:16:37.681Z,49.70
2017-06-03T17:19:22.029Z,51.00
2017-06-03T17:22:00.092Z,51.20
2017-06-03T17:24:44.924Z,51.00
2017-06-03T17:27:29.373Z,49.90
2017-06-03T17:30:08.222Z,50.10
2017-06-03T17:32:41.998Z,49.00
2017-06-03T17:38:19.605Z,49.80
2017-06-03T17:43:57.418Z,50.80
2017-06-03T17:46:44.733Z,51.70
2017-06-03T17:49:47.893Z,52.20
2017-06-03T17:52:30.645Z,52.70
2017-06-03T17:55:06.487Z,53.50
2017-06-03T17:57:42.456Z,53.90
2017-06-03T18:00:30.464Z,53.90
2017-06-03T18:03:15.643Z,54.30
2017-06-03T18:08:51.509Z,55.00
2017-06-03T18:11:34.240Z,55.20
2017-06-03T18:22:59.969Z,58.10
2017-06-03T18:25:44.764Z,58.80
2017-06-03T18:28:28.813Z,59.90
2017-06-03T18:31:19.156Z,60.20
2017-06-03T18:40:10.956Z,63.60
2017-06-03T18:42:55.311Z,62.10
2017-06-03T18:45:39.208Z,59.20
2017-06-03T18:48:23.092Z,58.60
2017-06-03T18:51:07.121Z,58.00
2017-06-03T18:53:53.709Z,57.70
2017-06-03T18:56:40.413Z,57.90
2017-06-03T18:59:25.043Z,58.00
2017-06-03T19:02:09.384Z,58.40
2017-06-03T19:07:45.960Z,59.10
2017-06-03T19:10:30.717Z,59.70
2017-06-03T19:13:14.947Z,60.30
2017-06-03T19:15:59.218Z,60.70
2017-06-03T19:18:36.621Z,60.80
2017-06-03T19:21:21.420Z,61.00
2017-06-03T19:24:03.460Z,61.30
2017-06-03T19:26:40.664Z,61.80
2017-06-03T19:29:25.269Z,62.10
2017-06-03T19:32:09.688Z,62.20
2017-06-03T19:34:56.011Z,62.10
2017-06-03T19:37:40.336Z,62.30
2017-06-03T19:43:16.832Z,63.00
2017-06-03T19:46:00.768Z,63.60
2017-06-03T19:48:38.147Z,62.50
2017-06-03T19:51:22.618Z,62.70
2017-06-03T19:54:06.489Z,62.80
2017-06-03T19:56:50.400Z,63.00
2017-06-03T19:59:34.383Z,62.90
2017-06-03T20:02:16.272Z,62.90
2017-06-03T20:05:01.017Z,62.70
2017-06-03T20:07:47.332Z,62.50
2017-06-03T20:10:32.138Z,62.90
2017-06-03T20:13:19.563Z,62.90
2017-06-03T20:16:03.717Z,63.20
2017-06-03T20:18:45.728Z,62.70
2017-06-03T20:21:29.687Z,62.50
2017-06-03T20:24:07.184Z,62.60
2017-06-03T20:26:51.940Z,62.30
2017-06-03T20:29:38.273Z,62.30
2017-06-03T20:32:22.735Z,62.50
2017-06-03T20:35:06.888Z,62.70
2017-06-03T20:37:53.479Z,62.30
2017-06-03T20:40:37.596Z,62.80
2017-06-03T20:43:21.752Z,62.90
2017-06-03T20:46:06.487Z,63.20
2017-06-03T20:48:52.967Z,63.40
2017-06-03T20:51:37.383Z,63.70
2017-06-03T20:54:21.501Z,63.90
2017-06-03T20:57:07.857Z,64.20
2017-06-03T20:59:52.249Z,64.40
2017-06-03T21:02:36.227Z,64.50
2017-06-03T21:05:21.165Z,64.30
2017-06-03T21:08:05.104Z,64.60
2017-06-03T21:10:49.073Z,65.40
2017-06-03T21:13:32.992Z,65.50
2017-06-03T21:16:17.001Z,66.00
2017-06-03T21:18:59.009Z,65.90
2017-06-03T21:21:41.220Z,66.10
2017-06-03T21:24:27.957Z,66.00
2017-06-03T21:27:10.412Z,66.00
2017-06-03T21:29:54.447Z,66.30
2017-06-03T21:32:38.338Z,66.40
2017-06-03T21:35:20.285Z,66.60
2017-06-03T21:38:04.344Z,66.40
2017-06-03T21:40:50.690Z,65.90
2017-06-03T21:43:35.464Z,66.20
2017-06-03T21:46:17.233Z,66.20
2017-06-03T21:49:03.940Z,65.90
2017-06-03T21:51:44.328Z,65.70
2017-06-03T21:57:23.643Z,65.60
2017-06-03T22:00:08.282Z,65.50
2017-06-03T22:02:43.788Z,65.60
2017-06-03T22:08:23.378Z,65.20
2017-06-03T22:11:07.696Z,65.00
2017-06-03T22:13:51.638Z,65.00
2017-06-03T22:16:34.247Z,65.40
2017-06-03T22:19:16.131Z,65.50
2017-06-03T22:21:57.947Z,66.20
2017-06-03T22:24:36.090Z,67.40
2017-06-03T22:27:10.221Z,69.30
2017-06-03T22:29:41.472Z,68.90
2017-06-03T22:35:07.677Z,70.80
2017-06-03T22:37:41.600Z,70.30
2017-06-03T22:40:15.772Z,70.60
2017-06-03T22:42:49.808Z,70.50
2017-06-03T22:45:34.352Z,71.50
2017-06-03T22:48:08.827Z,70.10
2017-06-03T22:50:42.716Z,71.50
2017-06-03T22:56:11.153Z,72.60
2017-06-03T22:58:41.760Z,71.90
2017-06-03T23:01:15.532Z,72.00
2017-06-03T23:03:49.466Z,72.60
2017-06-03T23:06:23.536Z,72.50
2017-06-03T23:09:05.048Z,72.80
2017-06-03T23:11:38.329Z,72.30
2017-06-03T23:14:12.283Z,73.40
2017-06-03T23:16:46.268Z,71.40
2017-06-03T23:19:20.181Z,73.00
2017-06-03T23:22:11.004Z,70.70
2017-06-03T23:24:50.968Z,71.20
2017-06-03T23:30:19.415Z,71.70
2017-06-03T23:33:02.132Z,72.80
2017-06-03T23:35:35.600Z,71.50
2017-06-03T23:38:10.456Z,71.70
2017-06-03T23:40:57.522Z,72.00
2017-06-03T23:43:39.935Z,71.90
2017-06-03T23:46:13.288Z,73.10
2017-06-03T23:48:54.595Z,72.20
2017-06-03T23:51:35.360Z,72.80
2017-06-03T23:54:02.925Z,73.10
2017-06-03T23:56:30.496Z,71.90
2017-06-03T23:59:01.600Z,72.50
